createdAt,value
2022-12-25T00:02:07.020Z,71.09
2022-12-25T00:04:35.259Z,70.32
2022-12-25T00:07:03.280Z,69.52
2022-12-25T00:09:31.566Z,70.51
2022-12-25T00:11:59.529Z,70.19
2022-12-25T00:14:28.914Z,69.90
2022-12-25T00:16:56.913Z,70.33
2022-12-25T00:19:25.054Z,70.02
2022-12-25T00:21:53.151Z,69.40
2022-12-25T00:24:21.339Z,69.30
2022-12-25T00:26:49.476Z,69.12
2022-12-25T00:29:17.518Z,68.92
2022-12-25T00:31:47.020Z,69.01
2022-12-25T00:34:15.066Z,69.72
2022-12-25T00:36:43.332Z,69.09
2022-12-25T00:39:11.543Z,68.90
2022-12-25T00:41:56.088Z,68.66
2022-12-25T00:44:24.071Z,70.65
2022-12-25T00:46:53.567Z,70.00
2022-12-25T00:49:22.591Z,69.69
2022-12-25T00:51:50.711Z,70.33
2022-12-25T00:54:19.128Z,70.01
2022-12-25T00:56:47.701Z,70.19
2022-12-25T00:59:15.908Z,69.44
2022-12-25T01:01:44.320Z,69.48
2022-12-25T01:04:14.289Z,69.43
2022-12-25T01:06:42.411Z,69.25
2022-12-25T01:09:28.254Z,69.89
2022-12-25T01:11:56.478Z,69.76
2022-12-25T01:14:24.679Z,69.24
2022-12-25T01:16:53.005Z,70.02
2022-12-25T01:19:22.455Z,69.62
2022-12-25T01:21:50.472Z,70.94
2022-12-25T01:24:18.529Z,70.61
2022-12-25T01:26:46.570Z,70.73
2022-12-25T01:29:14.813Z,70.39
2022-12-25T01:31:43.046Z,69.15
2022-12-25T01:34:11.201Z,68.57
2022-12-25T01:36:40.560Z,69.32
2022-12-25T01:39:09.904Z,70.49
2022-12-25T01:41:39.183Z,73.45
2022-12-25T01:44:10.059Z,72.78
2022-12-25T01:46:38.029Z,72.60
2022-12-25T01:49:09.360Z,71.50
2022-12-25T01:51:42.113Z,71.33
2022-12-25T01:54:14.285Z,70.65
2022-12-25T01:56:45.275Z,70.50
2022-12-25T01:59:17.409Z,70.91
2022-12-25T02:01:46.021Z,70.90
2022-12-25T02:04:20.728Z,70.99
2022-12-25T02:06:52.742Z,72.83
2022-12-25T02:09:20.849Z,73.61
2022-12-25T02:11:58.179Z,74.30
2022-12-25T02:14:28.522Z,74.24
2022-12-25T02:17:03.216Z,72.85
2022-12-25T02:19:52.702Z,72.80
2022-12-25T02:22:34.658Z,73.07
2022-12-25T02:25:19.112Z,74.44
2022-12-25T02:28:02.308Z,73.27
2022-12-25T02:30:37.077Z,72.81
2022-12-25T02:33:29.777Z,72.67
2022-12-25T02:35:59.305Z,72.52
2022-12-25T02:38:33.466Z,72.18
2022-12-25T02:41:08.666Z,73.43
2022-12-25T02:44:02.384Z,72.86
2022-12-25T02:46:50.257Z,73.11
2022-12-25T02:49:40.233Z,72.18
2022-12-25T02:52:29.918Z,71.57
2022-12-25T02:55:20.575Z,72.09
2022-12-25T02:58:10.760Z,71.96
2022-12-25T03:01:02.184Z,70.91
2022-12-25T03:03:51.516Z,71.19
2022-12-25T03:06:39.503Z,71.20
2022-12-25T03:09:27.038Z,70.88
2022-12-25T03:12:00.847Z,71.24
2022-12-25T03:14:47.036Z,71.17
2022-12-25T03:17:16.684Z,70.53
2022-12-25T03:20:02.146Z,70.19
2022-12-25T03:22:50.193Z,69.76
2022-12-25T03:25:37.010Z,69.98
2022-12-25T03:28:07.132Z,69.57
2022-12-25T03:31:00.572Z,70.37
2022-12-25T03:33:46.234Z,69.45
2022-12-25T03:36:19.057Z,69.77
2022-12-25T03:39:30.536Z,69.63
2022-12-25T03:42:24.575Z,70.40
2022-12-25T03:45:20.363Z,70.36
2022-12-25T03:48:09.760Z,70.20
2022-12-25T03:51:01.747Z,69.64
2022-12-25T03:53:54.726Z,69.44
2022-12-25T03:56:40.689Z,68.83
2022-12-25T03:59:25.952Z,68.89
2022-12-25T04:02:11.427Z,68.61
2022-12-25T04:04:57.801Z,68.33
2022-12-25T04:10:33.012Z,68.19
2022-12-25T04:13:18.626Z,67.54
2022-12-25T04:16:06.439Z,67.54
2022-12-25T04:18:51.915Z,67.49
2022-12-25T04:21:37.544Z,67.18
2022-12-25T04:24:26.165Z,67.39
2022-12-25T04:27:11.573Z,67.84
2022-12-25T04:29:56.806Z,66.97
2022-12-25T04:32:42.683Z,67.32
2022-12-25T04:35:28.567Z,67.87
2022-12-25T04:37:57.427Z,66.87
2022-12-25T04:40:27.331Z,67.98
2022-12-25T04:42:55.493Z,68.14
2022-12-25T04:45:24.007Z,70.04
2022-12-25T04:47:52.124Z,69.44
2022-12-25T04:50:20.152Z,70.02
2022-12-25T04:52:48.151Z,70.18
2022-12-25T04:55:16.174Z,69.05
2022-12-25T04:57:46.300Z,69.77
2022-12-25T05:00:15.004Z,69.83
2022-12-25T05:02:43.186Z,70.09
2022-12-25T05:05:11.418Z,69.70
2022-12-25T05:07:39.406Z,69.59
2022-12-25T05:10:08.815Z,71.07
2022-12-25T05:12:36.833Z,70.72
2022-12-25T05:15:07.005Z,70.09
2022-12-25T05:17:35.220Z,70.60
2022-12-25T05:20:03.247Z,70.14
2022-12-25T05:22:31.241Z,71.30
2022-12-25T05:24:59.234Z,71.74
2022-12-25T05:27:27.308Z,70.61
2022-12-25T05:29:55.536Z,70.95
2022-12-25T05:32:24.911Z,70.00
2022-12-25T05:34:52.890Z,70.41
2022-12-25T05:37:20.891Z,71.35
2022-12-25T05:39:48.861Z,71.06
2022-12-25T05:42:17.005Z,72.11
2022-12-25T05:44:45.128Z,72.99
2022-12-25T05:47:13.172Z,72.21
2022-12-25T05:49:43.304Z,71.89
2022-12-25T05:52:11.479Z,71.27
2022-12-25T05:54:39.461Z,71.45
2022-12-25T05:57:08.820Z,70.98
2022-12-25T05:59:37.213Z,71.36
2022-12-25T06:02:05.323Z,71.48
2022-12-25T06:04:33.563Z,70.87
2022-12-25T06:07:03.033Z,70.99
2022-12-25T06:09:31.269Z,70.56
2022-12-25T06:11:59.298Z,70.98
2022-12-25T06:14:27.331Z,69.98
2022-12-25T06:16:55.531Z,69.98
2022-12-25T06:19:23.989Z,69.42
2022-12-25T06:21:54.679Z,68.47
2022-12-25T06:24:24.657Z,68.51
2022-12-25T06:26:52.742Z,68.61
2022-12-25T06:29:20.922Z,70.27
2022-12-25T06:31:48.951Z,69.33
2022-12-25T06:34:17.220Z,68.60
2022-12-25T06:36:46.298Z,69.30
2022-12-25T06:39:14.555Z,69.03
2022-12-25T06:41:44.002Z,68.30
2022-12-25T06:44:11.988Z,68.56
2022-12-25T06:46:40.363Z,68.88
2022-12-25T06:49:08.631Z,68.43
2022-12-25T06:51:36.797Z,68.57
2022-12-25T06:54:04.816Z,68.24
2022-12-25T06:56:34.067Z,68.28
2022-12-25T06:59:04.966Z,68.58
2022-12-25T07:01:36.891Z,69.40
2022-12-25T07:04:07.468Z,69.63
2022-12-25T07:06:35.605Z,69.13
2022-12-25T07:09:03.817Z,70.37
2022-12-25T07:11:32.176Z,70.25
2022-12-25T07:14:00.205Z,70.94
2022-12-25T07:16:29.824Z,70.57
2022-12-25T07:19:00.332Z,71.01
2022-12-25T07:21:28.496Z,71.57
2022-12-25T07:23:56.699Z,71.31
2022-12-25T07:26:24.743Z,71.25
2022-12-25T07:28:52.909Z,70.00
2022-12-25T07:31:21.748Z,69.81
2022-12-25T07:33:54.502Z,69.88
2022-12-25T07:36:22.636Z,68.96
2022-12-25T07:38:51.511Z,69.70
2022-12-25T07:41:19.563Z,70.64
2022-12-25T07:43:51.831Z,70.29
2022-12-25T07:46:21.075Z,71.25
2022-12-25T07:48:50.268Z,69.99
2022-12-25T07:51:23.645Z,69.00
2022-12-25T07:53:51.714Z,70.15
2022-12-25T07:56:21.823Z,70.21
2022-12-25T07:58:50.045Z,70.01
2022-12-25T08:01:21.192Z,70.90
2022-12-25T08:03:53.941Z,70.47
2022-12-25T08:06:26.897Z,70.38
2022-12-25T08:08:55.374Z,69.34
2022-12-25T08:11:23.728Z,67.93
2022-12-25T08:13:52.000Z,68.59
2022-12-25T08:16:20.122Z,68.41
2022-12-25T08:18:48.255Z,68.44
2022-12-25T08:21:17.184Z,68.63
2022-12-25T08:23:48.855Z,68.08
2022-12-25T08:26:18.829Z,67.50
2022-12-25T08:28:50.775Z,67.00
2022-12-25T08:31:23.671Z,66.80
2022-12-25T08:33:54.487Z,66.30
2022-12-25T08:36:23.889Z,66.91
2022-12-25T08:39:00.389Z,66.74
2022-12-25T08:41:31.413Z,66.40
2022-12-25T08:43:59.418Z,67.04
2022-12-25T08:46:27.690Z,67.02
2022-12-25T08:48:56.908Z,65.92
2022-12-25T08:51:26.123Z,65.94
2022-12-25T08:54:00.205Z,66.21
2022-12-25T08:56:29.133Z,65.11
2022-12-25T08:58:57.259Z,65.23
2022-12-25T09:01:25.659Z,64.75
2022-12-25T09:03:53.943Z,64.17
2022-12-25T09:06:22.141Z,63.87
2022-12-25T09:08:50.262Z,63.46
2022-12-25T09:11:22.482Z,64.11
2022-12-25T09:13:51.074Z,64.08
2022-12-25T09:16:21.481Z,63.28
2022-12-25T09:18:50.644Z,63.50
2022-12-25T09:21:20.722Z,63.59
2022-12-25T09:23:49.326Z,63.47
2022-12-25T09:26:20.607Z,63.82
2022-12-25T09:28:51.261Z,64.60
2022-12-25T09:31:21.021Z,63.64
2022-12-25T09:33:49.559Z,64.11
2022-12-25T09:36:18.335Z,63.87
2022-12-25T09:38:46.830Z,63.65
2022-12-25T09:41:22.077Z,63.47
2022-12-25T09:43:55.804Z,63.68
2022-12-25T09:46:34.798Z,64.28
2022-12-25T09:49:17.028Z,63.13
2022-12-25T09:51:47.136Z,62.49
2022-12-25T09:54:21.968Z,61.01
2022-12-25T09:56:50.197Z,61.26
2022-12-25T09:59:25.936Z,60.78
2022-12-25T10:02:26.081Z,59.43
2022-12-25T10:05:12.018Z,59.12
2022-12-25T10:07:48.172Z,58.65
2022-12-25T10:10:33.069Z,58.81
2022-12-25T10:13:09.465Z,57.52
2022-12-25T10:15:50.292Z,58.42
2022-12-25T10:18:47.364Z,58.42
2022-12-25T10:21:18.848Z,58.05
2022-12-25T10:23:51.287Z,57.96
2022-12-25T10:26:22.083Z,58.11
2022-12-25T10:28:58.415Z,58.31
2022-12-25T10:31:30.581Z,58.41
2022-12-25T10:34:01.692Z,58.48
2022-12-25T10:36:31.356Z,58.65
2022-12-25T10:38:59.797Z,58.85
2022-12-25T10:41:51.347Z,59.24
2022-12-25T10:44:24.481Z,59.04
2022-12-25T10:46:56.085Z,59.69
2022-12-25T10:49:26.542Z,59.57
2022-12-25T10:51:54.561Z,59.32
2022-12-25T10:54:25.124Z,59.08
2022-12-25T10:56:58.588Z,59.43
2022-12-25T10:59:27.936Z,59.96
2022-12-25T11:01:58.530Z,60.54
2022-12-25T11:04:28.913Z,61.02
2022-12-25T11:07:06.543Z,61.10
2022-12-25T11:09:34.687Z,60.94
2022-12-25T11:12:02.937Z,61.28
2022-12-25T11:14:31.324Z,61.08
2022-12-25T11:17:13.549Z,61.02
2022-12-25T11:19:54.235Z,59.92
2022-12-25T11:22:22.608Z,58.93
2022-12-25T11:24:50.816Z,58.22
2022-12-25T11:27:28.495Z,56.94
2022-12-25T11:29:59.988Z,56.66
2022-12-25T11:32:34.320Z,55.48
2022-12-25T11:35:02.945Z,54.62
2022-12-25T11:37:39.580Z,54.06
2022-12-25T11:40:14.810Z,53.41
2022-12-25T11:42:51.785Z,53.71
2022-12-25T11:45:25.328Z,53.89
2022-12-25T11:47:59.030Z,53.46
2022-12-25T11:50:32.090Z,51.79
2022-12-25T11:53:03.839Z,51.37
2022-12-25T11:55:37.308Z,51.53
2022-12-25T11:58:10.031Z,51.18
2022-12-25T12:00:38.279Z,51.29
2022-12-25T12:03:17.509Z,50.89
2022-12-25T12:05:47.873Z,50.29
2022-12-25T12:08:16.019Z,50.28
2022-12-25T12:11:20.074Z,49.92
2022-12-25T12:14:06.615Z,49.63
2022-12-25T12:16:36.663Z,49.58
2022-12-25T12:19:14.108Z,47.88
2022-12-25T12:21:44.273Z,47.92
2022-12-25T12:24:18.076Z,48.10
2022-12-25T12:26:48.641Z,45.35
2022-12-25T12:29:27.020Z,45.48
2022-12-25T12:31:58.967Z,45.14
2022-12-25T12:34:32.356Z,45.23
2022-12-25T12:37:04.841Z,44.16
2022-12-25T12:39:37.197Z,43.43
2022-12-25T12:42:15.169Z,44.10
2022-12-25T12:44:44.259Z,44.18
2022-12-25T12:47:29.317Z,42.92
2022-12-25T12:50:01.425Z,44.22
2022-12-25T12:52:34.556Z,44.10
2022-12-25T12:55:05.202Z,43.45
2022-12-25T12:57:39.322Z,43.67
2022-12-25T13:00:10.552Z,44.22
2022-12-25T13:03:27.400Z,42.79
2022-12-25T13:06:02.064Z,43.15
2022-12-25T13:08:43.156Z,42.48
2022-12-25T13:11:17.827Z,42.32
2022-12-25T13:13:47.533Z,42.63
2022-12-25T13:16:23.357Z,42.84
2022-12-25T13:18:54.760Z,42.79
2022-12-25T13:21:27.629Z,42.27
2022-12-25T13:24:02.607Z,42.41
2022-12-25T13:26:31.912Z,42.60
2022-12-25T13:29:00.959Z,42.43
2022-12-25T13:31:31.530Z,42.11
2022-12-25T13:34:07.171Z,42.11
2022-12-25T13:36:40.383Z,42.29
2022-12-25T13:39:10.753Z,41.78
2022-12-25T13:42:04.684Z,41.45
2022-12-25T13:44:42.185Z,41.09
2022-12-25T13:47:18.130Z,41.06
2022-12-25T13:49:50.365Z,40.05
2022-12-25T13:52:21.319Z,40.01
2022-12-25T13:55:01.655Z,39.14
2022-12-25T13:57:34.249Z,38.93
2022-12-25T14:00:03.270Z,39.31
2022-12-25T14:02:37.171Z,39.03
2022-12-25T14:05:23.000Z,39.62
2022-12-25T14:07:54.260Z,39.70
2022-12-25T14:10:24.122Z,40.40
2022-12-25T14:12:54.869Z,40.24
2022-12-25T14:15:24.686Z,38.84
2022-12-25T14:17:53.503Z,38.94
2022-12-25T14:20:27.136Z,38.91
2022-12-25T14:23:01.011Z,37.63
2022-12-25T14:25:31.798Z,37.32
2022-12-25T14:28:02.081Z,38.21
2022-12-25T14:30:30.728Z,38.30
2022-12-25T14:32:59.613Z,39.30
2022-12-25T14:35:28.161Z,39.09
2022-12-25T14:38:01.514Z,39.32
2022-12-25T14:40:32.564Z,39.35
2022-12-25T14:43:03.211Z,38.91
2022-12-25T14:45:34.322Z,38.94
2022-12-25T14:48:04.726Z,39.05
2022-12-25T14:50:37.545Z,39.26
2022-12-25T14:53:18.205Z,39.74
2022-12-25T14:55:49.586Z,39.78
2022-12-25T14:58:22.539Z,39.86
2022-12-25T15:00:56.416Z,39.88
2022-12-25T15:03:29.394Z,39.30
2022-12-25T15:06:02.421Z,39.96
2022-12-25T15:08:33.745Z,40.08
2022-12-25T15:11:03.575Z,39.77
2022-12-25T15:13:33.048Z,39.29
2022-12-25T15:16:05.069Z,39.83
2022-12-25T15:18:37.802Z,40.37
2022-12-25T15:21:06.092Z,40.20
2022-12-25T15:23:35.780Z,40.00
2022-12-25T15:26:04.002Z,39.84
2022-12-25T15:28:32.149Z,40.24
2022-12-25T15:31:03.169Z,40.42
2022-12-25T15:33:31.382Z,40.73
2022-12-25T15:35:59.759Z,41.25
2022-12-25T15:38:27.806Z,41.49
2022-12-25T15:40:57.267Z,41.73
2022-12-25T15:43:41.730Z,42.61
2022-12-25T15:46:11.795Z,42.60
2022-12-25T15:48:39.875Z,42.73
2022-12-25T15:51:08.073Z,42.67
2022-12-25T15:53:36.175Z,43.20
2022-12-25T15:56:06.347Z,43.05
2022-12-25T15:58:34.575Z,43.85
2022-12-25T16:01:02.786Z,44.13
2022-12-25T16:03:31.924Z,44.98
2022-12-25T16:06:00.490Z,45.58
2022-12-25T16:08:28.538Z,47.07
2022-12-25T16:10:56.703Z,48.30
2022-12-25T16:13:26.373Z,48.51
2022-12-25T16:15:54.788Z,49.66
2022-12-25T16:18:23.922Z,50.66
2022-12-25T16:20:52.775Z,51.57
2022-12-25T16:23:20.890Z,50.82
2022-12-25T16:25:49.574Z,50.62
2022-12-25T16:28:18.032Z,51.42
2022-12-25T16:30:47.518Z,53.00
2022-12-25T16:33:16.744Z,52.35
2022-12-25T16:35:45.336Z,52.76
2022-12-25T16:38:13.486Z,53.72
2022-12-25T16:40:41.834Z,54.19
2022-12-25T16:43:10.178Z,54.61
2022-12-25T16:45:40.444Z,55.68
2022-12-25T16:48:10.111Z,55.86
2022-12-25T16:50:40.717Z,55.72
2022-12-25T16:53:12.742Z,55.48
2022-12-25T16:55:41.143Z,56.16
2022-12-25T16:58:09.369Z,56.79
2022-12-25T17:00:37.916Z,56.51
2022-12-25T17:03:06.412Z,57.05
2022-12-25T17:05:36.184Z,57.36
2022-12-25T17:08:04.393Z,57.80
2022-12-25T17:10:32.750Z,57.77
2022-12-25T17:13:00.901Z,59.33
2022-12-25T17:15:29.456Z,59.03
2022-12-25T17:17:59.274Z,59.61
2022-12-25T17:20:27.364Z,59.75
2022-12-25T17:22:57.700Z,60.29
2022-12-25T17:25:25.816Z,59.69
2022-12-25T17:27:54.063Z,59.08
2022-12-25T17:30:23.909Z,58.84
2022-12-25T17:32:52.300Z,58.83
2022-12-25T17:35:21.838Z,58.49
2022-12-25T17:37:49.976Z,59.92
2022-12-25T17:40:19.956Z,60.19
2022-12-25T17:42:48.010Z,60.13
2022-12-25T17:45:16.977Z,60.52
2022-12-25T17:47:45.253Z,59.95
2022-12-25T17:50:13.406Z,60.37
2022-12-25T17:52:41.775Z,60.80
2022-12-25T17:55:11.136Z,61.19
2022-12-25T17:57:41.459Z,61.18
2022-12-25T18:00:10.456Z,61.54
2022-12-25T18:02:43.901Z,62.11
2022-12-25T18:05:12.242Z,62.19
2022-12-25T18:07:40.453Z,62.00
2022-12-25T18:10:09.562Z,62.36
2022-12-25T18:12:38.244Z,63.01
2022-12-25T18:15:08.937Z,62.78
2022-12-25T18:17:37.403Z,63.15
2022-12-25T18:20:06.247Z,62.90
2022-12-25T18:22:35.110Z,62.20
2022-12-25T18:25:03.359Z,63.24
2022-12-25T18:27:31.751Z,63.13
2022-12-25T18:30:00.086Z,62.80
2022-12-25T18:32:29.706Z,63.68
2022-12-25T18:34:58.131Z,63.25
2022-12-25T18:37:31.889Z,62.53
2022-12-25T18:40:02.992Z,61.03
2022-12-25T18:42:40.204Z,60.78
2022-12-25T18:45:10.315Z,59.77
2022-12-25T18:47:39.917Z,59.69
2022-12-25T18:50:09.755Z,60.14
2022-12-25T18:52:47.576Z,59.96
2022-12-25T18:55:19.546Z,60.08
2022-12-25T18:57:47.890Z,59.81
2022-12-25T19:00:16.561Z,59.65
2022-12-25T19:02:49.257Z,59.66
2022-12-25T19:05:18.899Z,59.40
2022-12-25T19:07:46.933Z,58.91
2022-12-25T19:10:15.070Z,59.20
2022-12-25T19:12:43.177Z,59.34
2022-12-25T19:15:12.057Z,59.66
2022-12-25T19:17:40.421Z,59.74
2022-12-25T19:20:11.355Z,60.36
2022-12-25T19:22:39.507Z,59.71
2022-12-25T19:25:09.233Z,60.72
2022-12-25T19:27:37.364Z,60.18
2022-12-25T19:30:06.219Z,59.93
2022-12-25T19:32:34.559Z,60.45
2022-12-25T19:35:04.541Z,60.52
2022-12-25T19:37:34.226Z,60.59
2022-12-25T19:40:02.536Z,61.69
2022-12-25T19:42:30.721Z,61.48
2022-12-25T19:44:58.769Z,60.96
2022-12-25T19:47:26.986Z,61.76
2022-12-25T19:49:59.580Z,61.31
2022-12-25T19:52:30.733Z,61.86
2022-12-25T19:55:00.752Z,61.04
2022-12-25T19:57:28.909Z,61.71
2022-12-25T19:59:57.214Z,60.66
2022-12-25T20:02:25.784Z,60.99
2022-12-25T20:04:53.933Z,61.21
2022-12-25T20:07:22.526Z,60.85
2022-12-25T20:09:50.612Z,60.44
2022-12-25T20:12:20.442Z,60.84
2022-12-25T20:14:49.558Z,61.04
2022-12-25T20:17:20.629Z,61.02
2022-12-25T20:19:48.670Z,60.40
2022-12-25T20:22:16.997Z,60.61
2022-12-25T20:24:49.136Z,60.22
2022-12-25T20:27:17.578Z,60.40
2022-12-25T20:29:47.157Z,60.08
2022-12-25T20:32:17.221Z,61.02
2022-12-25T20:34:48.617Z,62.31
2022-12-25T20:37:17.135Z,63.12
2022-12-25T20:39:45.382Z,62.18
2022-12-25T20:42:13.857Z,62.53
2022-12-25T20:44:42.008Z,62.66
2022-12-25T20:47:12.130Z,61.62
2022-12-25T20:49:40.480Z,62.17
2022-12-25T20:52:09.909Z,62.48
2022-12-25T20:54:38.409Z,61.83
2022-12-25T20:57:07.070Z,62.63
2022-12-25T20:59:37.916Z,62.59
2022-12-25T21:02:06.719Z,62.71
2022-12-25T21:04:36.536Z,62.24
2022-12-25T21:07:05.327Z,62.44
2022-12-25T21:09:33.792Z,62.98
2022-12-25T21:12:02.115Z,62.19
2022-12-25T21:14:33.369Z,63.57
2022-12-25T21:17:14.035Z,63.12
2022-12-25T21:19:46.233Z,64.28
2022-12-25T21:22:15.456Z,63.39
2022-12-25T21:24:46.053Z,64.96
2022-12-25T21:27:14.328Z,64.08
2022-12-25T21:29:43.182Z,64.26
2022-12-25T21:32:40.179Z,64.04
2022-12-25T21:35:10.653Z,63.58
2022-12-25T21:37:38.982Z,63.67
2022-12-25T21:40:12.776Z,63.76
2022-12-25T21:42:44.200Z,63.97
2022-12-25T21:45:15.426Z,64.54
2022-12-25T21:48:01.956Z,64.19
2022-12-25T21:50:53.317Z,64.23
2022-12-25T21:53:24.769Z,64.35
2022-12-25T21:56:02.792Z,64.67
2022-12-25T21:58:31.479Z,65.16
2022-12-25T22:01:03.417Z,65.47
2022-12-25T22:03:31.801Z,65.31
2022-12-25T22:06:21.582Z,64.29
2022-12-25T22:08:51.379Z,64.42
2022-12-25T22:11:37.312Z,64.87
2022-12-25T22:14:51.470Z,65.06
2022-12-25T22:17:37.328Z,65.02
2022-12-25T22:20:07.950Z,65.22
2022-12-25T22:22:37.847Z,64.63
2022-12-25T22:25:07.024Z,64.90
2022-12-25T22:27:37.867Z,64.15
2022-12-25T22:30:07.952Z,64.40
2022-12-25T22:32:36.311Z,64.81
2022-12-25T22:35:08.326Z,64.83
2022-12-25T22:37:41.153Z,65.33
2022-12-25T22:40:11.692Z,64.64
2022-12-25T22:42:40.227Z,64.64
2022-12-25T22:45:09.831Z,64.56
2022-12-25T22:47:40.825Z,65.91
2022-12-25T22:50:10.593Z,64.72
2022-12-25T22:52:43.346Z,64.91
2022-12-25T22:55:12.621Z,65.91
2022-12-25T22:57:40.672Z,66.28
2022-12-25T23:00:14.587Z,66.12
2022-12-25T23:02:43.053Z,65.50
2022-12-25T23:05:11.703Z,65.93
2022-12-25T23:07:41.906Z,64.92
2022-12-25T23:10:13.220Z,65.39
2022-12-25T23:12:59.231Z,65.90
2022-12-25T23:15:32.592Z,65.64
2022-12-25T23:18:20.808Z,65.61
2022-12-25T23:21:21.322Z,65.01
2022-12-25T23:24:08.456Z,65.69
2022-12-25T23:26:36.748Z,65.49
2022-12-25T23:29:22.521Z,66.44
2022-12-25T23:31:53.716Z,66.84
2022-12-25T23:34:22.638Z,66.19
2022-12-25T23:36:50.811Z,66.55
2022-12-25T23:39:20.569Z,65.95
2022-12-25T23:41:51.510Z,65.82
2022-12-25T23:44:19.880Z,65.25
2022-12-25T23:46:52.512Z,65.46
2022-12-25T23:49:28.501Z,65.78
2022-12-25T23:51:59.457Z,65.51
2022-12-25T23:54:31.234Z,66.39
2022-12-25T23:56:59.881Z,65.82
2022-12-25T23:59:33.308Z,65.36
